sensor_id;sensor_type;location;lat;lon;timestamp;pressure;altitude;pressure_sealevel;temperature;humidity
3254;BME280;1639;42.804;23.342;2023-02-15T00:01:12;75597.69;;;-148.52;83.21
3254;BME280;1639;42.804;23.342;2023-02-15T00:03:38;75599.75;;;-148.52;84.02
3254;BME280;1639;42.804;23.342;2023-02-15T00:06:04;75595.63;;;-148.52;82.40
3254;BME280;1639;42.804;23.342;2023-02-15T00:08:30;75616.31;;;-148.52;81.76
3254;BME280;1639;42.804;23.342;2023-02-15T00:11:09;75616.31;;;-148.52;80.24
3254;BME280;1639;42.804;23.342;2023-02-15T00:13:35;75616.31;;;-148.52;80.69
3254;BME280;1639;42.804;23.342;2023-02-15T00:16:19;75614.25;;;-148.52;81.12
3254;BME280;1639;42.804;23.342;2023-02-15T00:18:44;75620.47;;;-148.52;80.89
3254;BME280;1639;42.804;23.342;2023-02-15T00:21:10;75647.34;;;-148.52;82.13
3254;BME280;1639;42.804;23.342;2023-02-15T00:23:36;75639.09;;;-148.52;82.71
3254;BME280;1639;42.804;23.342;2023-02-15T00:26:10;75632.88;;;-148.52;82.50
3254;BME280;1639;42.804;23.342;2023-02-15T00:28:36;75630.81;;;-148.52;81.20
3254;BME280;1639;42.804;23.342;2023-02-15T00:31:06;75630.81;;;-148.52;81.34
3254;BME280;1639;42.804;23.342;2023-02-15T00:33:32;75645.28;;;-148.52;82.35
3254;BME280;1639;42.804;23.342;2023-02-15T00:35:59;75637.00;;;-148.52;82.40
3254;BME280;1639;42.804;23.342;2023-02-15T00:38:26;75649.44;;;-148.52;81.21
3254;BME280;1639;42.804;23.342;2023-02-15T00:40:53;75643.22;;;-148.52;80.36
3254;BME280;1639;42.804;23.342;2023-02-15T00:43:19;75657.72;;;-148.52;81.32
3254;BME280;1639;42.804;23.342;2023-02-15T00:45:45;75647.34;;;-148.52;81.76
3254;BME280;1639;42.804;23.342;2023-02-15T00:48:11;75676.34;;;-148.52;82.80
3254;BME280;1639;42.804;23.342;2023-02-15T00:50:36;75670.13;;;-148.52;81.90
3254;BME280;1639;42.804;23.342;2023-02-15T00:53:02;75686.69;;;-148.52;80.68
3254;BME280;1639;42.804;23.342;2023-02-15T00:55:27;75678.41;;;-148.52;83.00
3254;BME280;1639;42.804;23.342;2023-02-15T00:57:53;75680.47;;;-148.52;81.27
3254;BME280;1639;42.804;23.342;2023-02-15T01:00:18;75697.03;;;-148.52;80.51
3254;BME280;1639;42.804;23.342;2023-02-15T01:02:43;75694.97;;;-148.52;83.07
3254;BME280;1639;42.804;23.342;2023-02-15T01:05:09;75694.97;;;-148.52;82.06
3254;BME280;1639;42.804;23.342;2023-02-15T01:07:34;75703.25;;;-148.52;81.53
3254;BME280;1639;42.804;23.342;2023-02-15T01:09:59;75713.59;;;-148.52;81.23
3254;BME280;1639;42.804;23.342;2023-02-15T01:12:25;75699.09;;;-148.52;81.37
3254;BME280;1639;42.804;23.342;2023-02-15T01:14:50;75688.75;;;-148.52;81.16
3254;BME280;1639;42.804;23.342;2023-02-15T01:17:16;75709.44;;;-148.52;79.39
3254;BME280;1639;42.804;23.342;2023-02-15T01:19:41;75732.22;;;-148.52;80.05
3254;BME280;1639;42.804;23.342;2023-02-15T01:22:06;75715.66;;;-148.52;80.71
3254;BME280;1639;42.804;23.342;2023-02-15T01:24:32;75723.94;;;-148.52;82.25
3254;BME280;1639;42.804;23.342;2023-02-15T01:26:57;75705.31;;;-148.52;81.98
3254;BME280;1639;42.804;23.342;2023-02-15T01:29:22;75709.44;;;-148.52;82.59
3254;BME280;1639;42.804;23.342;2023-02-15T01:31:48;75732.22;;;-148.52;83.58
3254;BME280;1639;42.804;23.342;2023-02-15T01:34:13;75709.44;;;-148.52;84.22
3254;BME280;1639;42.804;23.342;2023-02-15T01:36:39;75713.59;;;-148.52;83.36
3254;BME280;1639;42.804;23.342;2023-02-15T01:39:04;75730.16;;;-148.52;84.71
3254;BME280;1639;42.804;23.342;2023-02-15T01:41:30;75707.38;;;-148.52;84.63
3254;BME280;1639;42.804;23.342;2023-02-15T01:43:59;75707.38;;;-148.52;81.63
3254;BME280;1639;42.804;23.342;2023-02-15T01:46:46;75709.44;;;-148.52;82.32
3254;BME280;1639;42.804;23.342;2023-02-15T01:49:19;75717.72;;;-148.52;83.07
3254;BME280;1639;42.804;23.342;2023-02-15T01:51:47;75715.66;;;-148.52;83.09
3254;BME280;1639;42.804;23.342;2023-02-15T01:54:27;75726.00;;;-148.52;81.34
3254;BME280;1639;42.804;23.342;2023-02-15T01:56:56;75726.00;;;-148.52;83.42
3254;BME280;1639;42.804;23.342;2023-02-15T01:59:23;75732.22;;;-148.52;83.52
3254;BME280;1639;42.804;23.342;2023-02-15T02:01:52;75732.22;;;-148.52;83.71
3254;BME280;1639;42.804;23.342;2023-02-15T02:04:33;75752.91;;;-148.52;82.31
3254;BME280;1639;42.804;23.342;2023-02-15T02:07:00;75750.84;;;-148.52;82.99
3254;BME280;1639;42.804;23.342;2023-02-15T02:09:27;75734.28;;;-148.52;86.65
3254;BME280;1639;42.804;23.342;2023-02-15T02:11:53;75726.00;;;-148.52;85.47
3254;BME280;1639;42.804;23.342;2023-02-15T02:14:19;75734.28;;;-148.52;83.84
3254;BME280;1639;42.804;23.342;2023-02-15T02:20:06;75750.84;;;-148.52;82.87
3254;BME280;1639;42.804;23.342;2023-02-15T02:39:55;75775.69;;;-148.52;85.08
3254;BME280;1639;42.804;23.342;2023-02-15T02:47:43;75740.50;;;-148.52;84.24
3254;BME280;1639;42.804;23.342;2023-02-15T02:50:22;75765.34;;;-148.52;82.30
3254;BME280;1639;42.804;23.342;2023-02-15T02:52:50;75781.88;;;-148.52;82.47
3254;BME280;1639;42.804;23.342;2023-02-15T02:55:21;75775.69;;;-148.52;82.14
3254;BME280;1639;42.804;23.342;2023-02-15T02:57:54;75781.88;;;-148.52;82.89
3254;BME280;1639;42.804;23.342;2023-02-15T03:00:21;75792.22;;;-148.52;84.18
3254;BME280;1639;42.804;23.342;2023-02-15T03:02:53;75788.09;;;-148.52;83.36
3254;BME280;1639;42.804;23.342;2023-02-15T03:05:22;75804.66;;;-148.52;82.19
3254;BME280;1639;42.804;23.342;2023-02-15T03:07:51;75810.88;;;-148.52;82.60
3254;BME280;1639;42.804;23.342;2023-02-15T03:10:21;75812.94;;;-148.52;81.60
3254;BME280;1639;42.804;23.342;2023-02-15T03:12:48;75812.94;;;-148.52;82.14
3254;BME280;1639;42.804;23.342;2023-02-15T03:15:22;75823.28;;;-148.52;82.04
3254;BME280;1639;42.804;23.342;2023-02-15T03:17:52;75829.50;;;-148.52;82.56
3254;BME280;1639;42.804;23.342;2023-02-15T03:20:25;75815.00;;;-148.52;83.26
3254;BME280;1639;42.804;23.342;2023-02-15T03:22:56;75800.50;;;-148.52;81.99
3254;BME280;1639;42.804;23.342;2023-02-15T03:25:26;75802.59;;;-148.52;82.43
3254;BME280;1639;42.804;23.342;2023-02-15T03:27:58;75810.88;;;-148.52;83.15
3254;BME280;1639;42.804;23.342;2023-02-15T03:30:25;75802.59;;;-148.52;83.52
3254;BME280;1639;42.804;23.342;2023-02-15T03:32:52;75806.72;;;-148.52;83.43
3254;BME280;1639;42.804;23.342;2023-02-15T03:35:22;75800.50;;;-148.52;83.73
3254;BME280;1639;42.804;23.342;2023-02-15T03:38:00;75798.44;;;-148.52;84.20
3254;BME280;1639;42.804;23.342;2023-02-15T03:40:32;75802.59;;;-148.52;83.49
3254;BME280;1639;42.804;23.342;2023-02-15T03:45:47;75815.00;;;-148.52;86.21
3254;BME280;1639;42.804;23.342;2023-02-15T03:48:32;75802.59;;;-148.52;87.65
3254;BME280;1639;42.804;23.342;2023-02-15T03:51:07;75794.31;;;-148.52;87.98
3254;BME280;1639;42.804;23.342;2023-02-15T03:53:52;75788.09;;;-148.52;86.29
3254;BME280;1639;42.804;23.342;2023-02-15T03:56:19;75804.66;;;-148.52;87.69
3254;BME280;1639;42.804;23.342;2023-02-15T03:58:44;75792.22;;;-148.52;87.07
3254;BME280;1639;42.804;23.342;2023-02-15T04:01:40;75790.16;;;-148.52;85.59
3254;BME280;1639;42.804;23.342;2023-02-15T04:06:58;75802.59;;;-148.52;83.32
3254;BME280;1639;42.804;23.342;2023-02-15T04:09:23;75796.38;;;-148.52;84.19
3254;BME280;1639;42.804;23.342;2023-02-15T04:12:07;75783.97;;;-148.52;87.69
3254;BME280;1639;42.804;23.342;2023-02-15T04:14:33;75786.03;;;-148.52;97.90
3254;BME280;1639;42.804;23.342;2023-02-15T04:17:17;75769.47;;;-148.52;97.80
3254;BME280;1639;42.804;23.342;2023-02-15T04:19:42;75761.19;;;-148.52;97.80
3254;BME280;1639;42.804;23.342;2023-02-15T04:22:26;75761.19;;;-148.52;100.00
3254;BME280;1639;42.804;23.342;2023-02-15T04:25:10;75777.75;;;-148.52;100.00
3254;BME280;1639;42.804;23.342;2023-02-15T04:27:40;75777.75;;;-148.52;100.00
3254;BME280;1639;42.804;23.342;2023-02-15T04:30:07;75771.53;;;-148.52;100.00
3254;BME280;1639;42.804;23.342;2023-02-15T04:32:34;75761.19;;;-148.52;100.00
3254;BME280;1639;42.804;23.342;2023-02-15T04:35:00;75761.19;;;-148.52;100.00
3254;BME280;1639;42.804;23.342;2023-02-15T04:37:25;75740.50;;;-148.52;100.00
3254;BME280;1639;42.804;23.342;2023-02-15T04:39:50;75734.28;;;-148.52;100.00
3254;BME280;1639;42.804;23.342;2023-02-15T04:42:16;75748.78;;;-148.52;100.00
3254;BME280;1639;42.804;23.342;2023-02-15T04:44:42;75757.06;;;-148.52;100.00
3254;BME280;1639;42.804;23.342;2023-02-15T04:47:07;75759.13;;;-148.52;100.00
3254;BME280;1639;42.804;23.342;2023-02-15T04:49:32;75750.84;;;-148.52;100.00
3254;BME280;1639;42.804;23.342;2023-02-15T04:51:58;75750.84;;;-148.52;100.00
3254;BME280;1639;42.804;23.342;2023-02-15T04:54:23;75777.75;;;-148.52;96.07
3254;BME280;1639;42.804;23.342;2023-02-15T04:56:49;75769.47;;;-148.52;94.56
3254;BME280;1639;42.804;23.342;2023-02-15T04:59:14;75777.75;;;-148.52;93.67
3254;BME280;1639;42.804;23.342;2023-02-15T05:01:39;75790.16;;;-148.52;89.10
3254;BME280;1639;42.804;23.342;2023-02-15T05:04:05;75810.88;;;-148.52;87.22
3254;BME280;1639;42.804;23.342;2023-02-15T05:06:30;75823.28;;;-148.52;88.01
3254;BME280;1639;42.804;23.342;2023-02-15T05:08:56;75835.69;;;-148.52;89.15
3254;BME280;1639;42.804;23.342;2023-02-15T05:11:24;75839.84;;;-148.52;91.30
3254;BME280;1639;42.804;23.342;2023-02-15T05:13:49;75833.63;;;-148.52;91.79
3254;BME280;1639;42.804;23.342;2023-02-15T05:16:14;75833.63;;;-148.52;91.12
3254;BME280;1639;42.804;23.342;2023-02-15T05:18:40;75831.56;;;-148.52;91.41
3254;BME280;1639;42.804;23.342;2023-02-15T05:21:05;75864.69;;;-148.52;92.47
3254;BME280;1639;42.804;23.342;2023-02-15T05:23:30;75858.47;;;-148.52;96.01
3254;BME280;1639;42.804;23.342;2023-02-15T05:25:56;75854.31;;;-148.52;96.13
3254;BME280;1639;42.804;23.342;2023-02-15T05:28:40;75860.53;;;-148.52;90.43
3254;BME280;1639;42.804;23.342;2023-02-15T05:31:14;75881.22;;;-148.52;91.52
3254;BME280;1639;42.804;23.342;2023-02-15T05:33:40;75883.31;;;-148.52;92.61
3254;BME280;1639;42.804;23.342;2023-02-15T05:36:06;75891.56;;;-148.52;92.83
3254;BME280;1639;42.804;23.342;2023-02-15T05:38:32;75881.22;;;-148.52;96.74
3254;BME280;1639;42.804;23.342;2023-02-15T05:40:58;75864.69;;;-148.52;100.00
3254;BME280;1639;42.804;23.342;2023-02-15T05:43:24;75839.84;;;-148.52;100.00
3254;BME280;1639;42.804;23.342;2023-02-15T05:45:52;75821.22;;;-148.52;100.00
3254;BME280;1639;42.804;23.342;2023-02-15T05:48:18;75823.28;;;-148.52;100.00
3254;BME280;1639;42.804;23.342;2023-02-15T05:50:44;75835.69;;;-148.52;100.00
3254;BME280;1639;42.804;23.342;2023-02-15T05:53:10;75825.34;;;-148.52;100.00
3254;BME280;1639;42.804;23.342;2023-02-15T05:55:39;75821.22;;;-148.52;100.00
3254;BME280;1639;42.804;23.342;2023-02-15T05:58:05;75806.72;;;-148.52;100.00
3254;BME280;1639;42.804;23.342;2023-02-15T06:00:30;75798.44;;;-148.52;100.00
3254;BME280;1639;42.804;23.342;2023-02-15T06:02:56;75802.59;;;-148.52;100.00
3254;BME280;1639;42.804;23.342;2023-02-15T06:05:21;75777.75;;;-148.52;100.00
3254;BME280;1639;42.804;23.342;2023-02-15T06:07:47;75767.41;;;-148.52;100.00
3254;BME280;1639;42.804;23.342;2023-02-15T06:10:12;75744.63;;;-148.52;100.00
3254;BME280;1639;42.804;23.342;2023-02-15T06:12:38;75732.22;;;-148.52;100.00
3254;BME280;1639;42.804;23.342;2023-02-15T06:15:04;75719.78;;;-148.52;100.00
3254;BME280;1639;42.804;23.342;2023-02-15T06:17:30;75699.09;;;-148.52;100.00
3254;BME280;1639;42.804;23.342;2023-02-15T06:19:55;75686.69;;;-148.52;100.00
3254;BME280;1639;42.804;23.342;2023-02-15T06:22:20;75666.00;;;-148.52;100.00
3254;BME280;1639;42.804;23.342;2023-02-15T06:24:46;75657.72;;;-148.52;100.00
3254;BME280;1639;42.804;23.342;2023-02-15T06:27:12;75653.56;;;-148.52;100.00
3254;BME280;1639;42.804;23.342;2023-02-15T06:29:38;75651.50;;;-148.52;100.00
3254;BME280;1639;42.804;23.342;2023-02-15T06:32:03;75637.00;;;-148.52;100.00
3254;BME280;1639;42.804;23.342;2023-02-15T06:34:29;75630.81;;;-148.52;100.00
3254;BME280;1639;42.804;23.342;2023-02-15T06:36:54;75622.53;;;-148.52;100.00
3254;BME280;1639;42.804;23.342;2023-02-15T06:39:20;75599.75;;;-148.52;100.00
3254;BME280;1639;42.804;23.342;2023-02-15T06:41:45;75572.84;;;-148.52;100.00
3254;BME280;1639;42.804;23.342;2023-02-15T06:44:10;75545.94;;;-148.52;100.00
3254;BME280;1639;42.804;23.342;2023-02-15T06:46:36;75529.41;;;-148.52;100.00
3254;BME280;1639;42.804;23.342;2023-02-15T06:49:01;75525.25;;;-148.52;100.00
3254;BME280;1639;42.804;23.342;2023-02-15T06:51:26;75500.41;;;-148.52;100.00
3254;BME280;1639;42.804;23.342;2023-02-15T06:53:52;75485.94;;;-148.52;98.28
3254;BME280;1639;42.804;23.342;2023-02-15T06:56:17;75461.09;;;-148.52;98.42
3254;BME280;1639;42.804;23.342;2023-02-15T06:58:43;75459.03;;;-148.52;96.75
3254;BME280;1639;42.804;23.342;2023-02-15T07:01:11;75434.19;;;-148.52;96.53
3254;BME280;1639;42.804;23.342;2023-02-15T07:03:36;75421.78;;;-148.52;96.32
3254;BME280;1639;42.804;23.342;2023-02-15T07:06:03;75386.59;;;-148.52;91.92
3254;BME280;1639;42.804;23.342;2023-02-15T07:08:31;75374.19;;;-148.52;89.61
3254;BME280;1639;42.804;23.342;2023-02-15T07:10:56;75357.63;;;-148.52;89.80
3254;BME280;1639;42.804;23.342;2023-02-15T07:13:45;75339.00;;;-148.52;88.14
3254;BME280;1639;42.804;23.342;2023-02-15T07:16:12;75318.31;;;-148.52;87.40
3254;BME280;1639;42.804;23.342;2023-02-15T07:18:38;75297.63;;;-148.52;87.01
3254;BME280;1639;42.804;23.342;2023-02-15T07:21:04;75268.66;;;-148.52;85.39
3254;BME280;1639;42.804;23.342;2023-02-15T07:23:36;75237.59;;;-148.52;82.99
3254;BME280;1639;42.804;23.342;2023-02-15T07:26:01;75202.44;;;-148.52;81.30
3254;BME280;1639;42.804;23.342;2023-02-15T07:28:28;75167.25;;;-148.52;79.05
3254;BME280;1639;42.804;23.342;2023-02-15T07:30:53;75123.78;;;-148.52;78.91
3254;BME280;1639;42.804;23.342;2023-02-15T07:33:19;75096.88;;;-148.52;75.54
3254;BME280;1639;42.804;23.342;2023-02-15T07:35:54;75070.00;;;-148.52;74.55
3254;BME280;1639;42.804;23.342;2023-02-15T07:38:21;75030.66;;;-148.52;74.63
3254;BME280;1639;42.804;23.342;2023-02-15T07:40:46;74987.22;;;-148.52;73.82
3254;BME280;1639;42.804;23.342;2023-02-15T07:43:13;74962.38;;;-148.52;73.05
3254;BME280;1639;42.804;23.342;2023-02-15T07:45:38;74949.97;;;-148.52;73.48
3254;BME280;1639;42.804;23.342;2023-02-15T07:48:05;74925.16;;;-148.52;72.95
3254;BME280;1639;42.804;23.342;2023-02-15T07:50:31;74898.25;;;-148.52;72.33
3254;BME280;1639;42.804;23.342;2023-02-15T07:52:56;74885.81;;;-148.52;72.83
3254;BME280;1639;42.804;23.342;2023-02-15T07:55:22;74861.00;;;-148.52;71.92
3254;BME280;1639;42.804;23.342;2023-02-15T07:57:49;74838.25;;;-148.52;69.51
3254;BME280;1639;42.804;23.342;2023-02-15T08:00:16;74825.81;;;-148.52;69.27
3254;BME280;1639;42.804;23.342;2023-02-15T08:02:47;74794.78;;;-148.52;68.26
3254;BME280;1639;42.804;23.342;2023-02-15T08:05:12;74774.09;;;-148.52;67.35
3254;BME280;1639;42.804;23.342;2023-02-15T08:07:38;74769.94;;;-148.52;63.79
3254;BME280;1639;42.804;23.342;2023-02-15T08:10:04;74825.81;;;-148.52;62.38
3254;BME280;1639;42.804;23.342;2023-02-15T08:12:29;74813.41;;;-148.52;62.55
3254;BME280;1639;42.804;23.342;2023-02-15T08:14:54;74817.53;;;-148.52;62.55
3254;BME280;1639;42.804;23.342;2023-02-15T08:17:20;74792.72;;;-148.52;61.26
3254;BME280;1639;42.804;23.342;2023-02-15T08:19:45;74792.72;;;-148.52;60.69
3254;BME280;1639;42.804;23.342;2023-02-15T08:22:13;74763.75;;;-148.52;59.82
3254;BME280;1639;42.804;23.342;2023-02-15T08:24:40;74778.22;;;-148.52;59.41
3254;BME280;1639;42.804;23.342;2023-02-15T08:27:07;74786.50;;;-148.52;58.98
3254;BME280;1639;42.804;23.342;2023-02-15T08:29:34;74834.09;;;-148.52;60.22
3254;BME280;1639;42.804;23.342;2023-02-15T08:32:03;74846.50;;;-148.52;60.61
3254;BME280;1639;42.804;23.342;2023-02-15T08:34:31;74854.78;;;-148.52;61.18
3254;BME280;1639;42.804;23.342;2023-02-15T08:36:57;74863.06;;;-148.52;60.90
3254;BME280;1639;42.804;23.342;2023-02-15T08:39:22;74821.69;;;-148.52;60.45
3254;BME280;1639;42.804;23.342;2023-02-15T08:41:48;74780.31;;;-148.52;59.55
3254;BME280;1639;42.804;23.342;2023-02-15T08:44:16;74689.25;;;-148.52;58.00
3254;BME280;1639;42.804;23.342;2023-02-15T08:46:43;74649.94;;;-148.52;56.15
3254;BME280;1639;42.804;23.342;2023-02-15T08:49:12;74656.16;;;-148.52;55.22
3254;BME280;1639;42.804;23.342;2023-02-15T08:51:39;74714.09;;;-148.52;55.38
3254;BME280;1639;42.804;23.342;2023-02-15T08:54:07;74751.34;;;-148.52;56.75
3254;BME280;1639;42.804;23.342;2023-02-15T08:56:36;74769.94;;;-148.52;57.55
3254;BME280;1639;42.804;23.342;2023-02-15T08:59:03;74763.75;;;-148.52;57.53
3254;BME280;1639;42.804;23.342;2023-02-15T09:01:30;74765.81;;;-148.52;58.37
3254;BME280;1639;42.804;23.342;2023-02-15T09:04:00;74740.97;;;-148.52;58.03
3254;BME280;1639;42.804;23.342;2023-02-15T09:06:27;74772.03;;;-148.52;59.14
3254;BME280;1639;42.804;23.342;2023-02-15T09:08:53;74805.13;;;-148.52;58.06
3254;BME280;1639;42.804;23.342;2023-02-15T09:11:22;74811.34;;;-148.52;58.21
3254;BME280;1639;42.804;23.342;2023-02-15T09:14:01;74774.09;;;-148.52;58.25
3254;BME280;1639;42.804;23.342;2023-02-15T09:16:29;74724.44;;;-148.52;58.19
3254;BME280;1639;42.804;23.342;2023-02-15T09:18:56;74716.16;;;-148.52;55.83
3254;BME280;1639;42.804;23.342;2023-02-15T09:21:27;74716.16;;;-148.52;55.95
3254;BME280;1639;42.804;23.342;2023-02-15T09:24:00;74709.94;;;-148.52;55.41
3254;BME280;1639;42.804;23.342;2023-02-15T09:26:27;74664.44;;;-148.52;55.25
3254;BME280;1639;42.804;23.342;2023-02-15T09:28:55;74637.53;;;-148.52;55.28
3254;BME280;1639;42.804;23.342;2023-02-15T09:31:23;74612.69;;;-148.52;54.67
3254;BME280;1639;42.804;23.342;2023-02-15T09:33:49;74594.09;;;-148.52;53.26
3254;BME280;1639;42.804;23.342;2023-02-15T09:36:17;74600.28;;;-148.52;53.04
3254;BME280;1639;42.804;23.342;2023-02-15T09:38:46;74579.59;;;-148.52;52.97
3254;BME280;1639;42.804;23.342;2023-02-15T09:44:03;74585.81;;;-148.52;52.27
3254;BME280;1639;42.804;23.342;2023-02-15T09:52:53;74643.75;;;-148.52;53.14
3254;BME280;1639;42.804;23.342;2023-02-15T10:09:44;74560.97;;;-148.52;52.20
3254;BME280;1639;42.804;23.342;2023-02-15T10:12:31;74546.50;;;-148.52;51.97
3254;BME280;1639;42.804;23.342;2023-02-15T10:20:35;74511.31;;;-148.52;51.32
3254;BME280;1639;42.804;23.342;2023-02-15T10:23:12;74492.69;;;-148.52;51.14
3254;BME280;1639;42.804;23.342;2023-02-15T10:28:08;74513.38;;;-148.52;50.60
3254;BME280;1639;42.804;23.342;2023-02-15T10:30:50;74488.56;;;-148.52;50.09
3254;BME280;1639;42.804;23.342;2023-02-15T10:33:39;74500.97;;;-148.52;50.43
3254;BME280;1639;42.804;23.342;2023-02-15T10:38:38;74478.22;;;-148.52;50.44
3254;BME280;1639;42.804;23.342;2023-02-15T10:44:28;74482.34;;;-148.52;50.51
3254;BME280;1639;42.804;23.342;2023-02-15T10:56:00;74459.59;;;-148.52;49.61
3254;BME280;1639;42.804;23.342;2023-02-15T10:58:49;74463.72;;;-148.52;50.51
3254;BME280;1639;42.804;23.342;2023-02-15T11:06:33;74478.22;;;-148.52;51.37
3254;BME280;1639;42.804;23.342;2023-02-15T11:09:03;74484.44;;;-148.52;50.45
3254;BME280;1639;42.804;23.342;2023-02-15T11:11:34;74486.50;;;-148.52;51.06
3254;BME280;1639;42.804;23.342;2023-02-15T11:14:46;74484.44;;;-148.52;50.91
3254;BME280;1639;42.804;23.342;2023-02-15T11:16:55;74486.50;;;-148.52;50.86
3254;BME280;1639;42.804;23.342;2023-02-15T11:19:34;74484.44;;;-148.52;51.41
3254;BME280;1639;42.804;23.342;2023-02-15T11:22:03;74480.28;;;-148.52;51.00
3254;BME280;1639;42.804;23.342;2023-02-15T11:24:33;74476.16;;;-148.52;50.37
3254;BME280;1639;42.804;23.342;2023-02-15T11:27:25;74476.16;;;-148.52;50.23
3254;BME280;1639;42.804;23.342;2023-02-15T11:30:11;74488.56;;;-148.52;50.98
3254;BME280;1639;42.804;23.342;2023-02-15T11:32:46;74486.50;;;-148.52;50.62
3254;BME280;1639;42.804;23.342;2023-02-15T11:40:30;74507.19;;;-148.52;52.42
3254;BME280;1639;42.804;23.342;2023-02-15T11:43:06;74503.03;;;-148.52;51.84
3254;BME280;1639;42.804;23.342;2023-02-15T11:45:33;74490.63;;;-148.52;52.48
3254;BME280;1639;42.804;23.342;2023-02-15T11:48:00;74511.31;;;-148.52;52.60
3254;BME280;1639;42.804;23.342;2023-02-15T11:50:28;74517.53;;;-148.52;52.66
3254;BME280;1639;42.804;23.342;2023-02-15T11:53:18;74517.53;;;-148.52;52.74
3254;BME280;1639;42.804;23.342;2023-02-15T11:55:47;74523.72;;;-148.52;53.85
3254;BME280;1639;42.804;23.342;2023-02-15T11:58:37;74527.88;;;-148.52;53.36
3254;BME280;1639;42.804;23.342;2023-02-15T12:03:54;74540.28;;;-148.52;53.80
3254;BME280;1639;42.804;23.342;2023-02-15T12:06:27;74548.56;;;-148.52;53.57
3254;BME280;1639;42.804;23.342;2023-02-15T12:11:37;74532.00;;;-148.52;52.42
3254;BME280;1639;42.804;23.342;2023-02-15T12:14:12;74527.88;;;-148.52;53.63
3254;BME280;1639;42.804;23.342;2023-02-15T12:16:50;74538.22;;;-148.52;53.69
3254;BME280;1639;42.804;23.342;2023-02-15T12:21:51;74532.00;;;-148.52;53.40
3254;BME280;1639;42.804;23.342;2023-02-15T12:24:27;74538.22;;;-148.52;53.39
3254;BME280;1639;42.804;23.342;2023-02-15T12:27:32;74536.16;;;-148.52;53.25
3254;BME280;1639;42.804;23.342;2023-02-15T12:30:03;74527.88;;;-148.52;53.75
3254;BME280;1639;42.804;23.342;2023-02-15T12:32:35;74521.66;;;-148.52;53.31
3254;BME280;1639;42.804;23.342;2023-02-15T12:35:13;74532.00;;;-148.52;53.56
3254;BME280;1639;42.804;23.342;2023-02-15T12:37:52;74532.00;;;-148.52;53.82
3254;BME280;1639;42.804;23.342;2023-02-15T12:40:25;74525.81;;;-148.52;53.83
3254;BME280;1639;42.804;23.342;2023-02-15T12:42:52;74536.16;;;-148.52;53.63
3254;BME280;1639;42.804;23.342;2023-02-15T12:45:44;74525.81;;;-148.52;53.53
3254;BME280;1639;42.804;23.342;2023-02-15T12:50:38;74517.53;;;-148.52;53.63
3254;BME280;1639;42.804;23.342;2023-02-15T12:53:18;74525.81;;;-148.52;53.29
3254;BME280;1639;42.804;23.342;2023-02-15T12:55:57;74523.72;;;-148.52;53.59
3254;BME280;1639;42.804;23.342;2023-02-15T12:58:25;74521.66;;;-148.52;53.05
3254;BME280;1639;42.804;23.342;2023-02-15T13:01:09;74515.47;;;-148.52;53.14
3254;BME280;1639;42.804;23.342;2023-02-15T13:06:17;74507.19;;;-148.52;53.05
3254;BME280;1639;42.804;23.342;2023-02-15T13:08:48;74500.97;;;-148.52;53.57
3254;BME280;1639;42.804;23.342;2023-02-15T13:11:40;74484.44;;;-148.52;53.28
3254;BME280;1639;42.804;23.342;2023-02-15T13:14:20;74482.34;;;-148.52;53.16
3254;BME280;1639;42.804;23.342;2023-02-15T13:16:49;74478.22;;;-148.52;52.42
3254;BME280;1639;42.804;23.342;2023-02-15T13:19:26;74478.22;;;-148.52;52.92
3254;BME280;1639;42.804;23.342;2023-02-15T13:21:55;74482.34;;;-148.52;52.29
3254;BME280;1639;42.804;23.342;2023-02-15T13:24:58;74476.16;;;-148.52;52.59
3254;BME280;1639;42.804;23.342;2023-02-15T13:27:40;74478.22;;;-148.52;52.67
3254;BME280;1639;42.804;23.342;2023-02-15T13:30:27;74469.94;;;-148.52;52.58
3254;BME280;1639;42.804;23.342;2023-02-15T13:33:25;74469.94;;;-148.52;52.27
3254;BME280;1639;42.804;23.342;2023-02-15T13:41:35;74478.22;;;-148.52;52.25
3254;BME280;1639;42.804;23.342;2023-02-15T13:49:55;74480.28;;;-148.52;51.81
3254;BME280;1639;42.804;23.342;2023-02-15T13:52:27;74476.16;;;-148.52;51.78
3254;BME280;1639;42.804;23.342;2023-02-15T14:10:49;74503.03;;;-148.52;51.97
3254;BME280;1639;42.804;23.342;2023-02-15T14:16:11;74523.72;;;-148.52;51.39
3254;BME280;1639;42.804;23.342;2023-02-15T14:18:47;74529.94;;;-148.52;51.67
3254;BME280;1639;42.804;23.342;2023-02-15T14:24:27;74542.34;;;-148.52;52.74
3254;BME280;1639;42.804;23.342;2023-02-15T14:27:13;74560.97;;;-148.52;53.03
3254;BME280;1639;42.804;23.342;2023-02-15T14:29:47;74556.84;;;-148.52;52.94
3254;BME280;1639;42.804;23.342;2023-02-15T14:32:29;74556.84;;;-148.52;53.03
3254;BME280;1639;42.804;23.342;2023-02-15T14:34:59;74563.03;;;-148.52;53.36
3254;BME280;1639;42.804;23.342;2023-02-15T14:40:07;74554.78;;;-148.52;53.25
3254;BME280;1639;42.804;23.342;2023-02-15T14:45:35;74565.13;;;-148.52;53.58
3254;BME280;1639;42.804;23.342;2023-02-15T14:48:14;74571.31;;;-148.52;53.40
3254;BME280;1639;42.804;23.342;2023-02-15T14:50:44;74577.53;;;-148.52;53.48
3254;BME280;1639;42.804;23.342;2023-02-15T14:58:30;74579.59;;;-148.52;54.56
3254;BME280;1639;42.804;23.342;2023-02-15T15:01:04;74592.00;;;-148.52;54.75
3254;BME280;1639;42.804;23.342;2023-02-15T15:03:31;74592.00;;;-148.52;54.40
3254;BME280;1639;42.804;23.342;2023-02-15T15:05:59;74592.00;;;-148.52;53.99
3254;BME280;1639;42.804;23.342;2023-02-15T15:08:32;74602.34;;;-148.52;54.83
3254;BME280;1639;42.804;23.342;2023-02-15T15:14:00;74610.63;;;-148.52;54.98
3254;BME280;1639;42.804;23.342;2023-02-15T15:16:47;74623.06;;;-148.52;55.19
3254;BME280;1639;42.804;23.342;2023-02-15T15:22:24;74660.28;;;-148.52;56.22
3254;BME280;1639;42.804;23.342;2023-02-15T15:24:54;74672.69;;;-148.52;56.41
3254;BME280;1639;42.804;23.342;2023-02-15T15:27:40;74689.25;;;-148.52;56.58
3254;BME280;1639;42.804;23.342;2023-02-15T15:46:39;74805.13;;;-148.52;59.53
3254;BME280;1639;42.804;23.342;2023-02-15T15:49:12;74819.63;;;-148.52;59.34
3254;BME280;1639;42.804;23.342;2023-02-15T15:51:42;74832.03;;;-148.52;60.17